Aviation Digital Data Service (ADDS)

Output produced by TAFs form (1745 UTC 28 March 2017)
found at http://aviationweather.gov/adds/tafs/
 
KTCC 281459Z 2815/2912 20008KT 6SM RA BR BKN020 OVC040 
     FM281630 10010KT P6SM SCT100 
     FM282200 06010KT P6SM -SHRA BKN045 OVC090 
     FM290300 03011KT 4SM RA BR OVC015